sensor_id;sensor_type;location;lat;lon;timestamp;temperature;humidity
20700;DHT22;10511;51.232;9.420;2023-04-09T00:01:15;6.90;99.90
20700;DHT22;10511;51.232;9.420;2023-04-09T00:03:42;6.80;99.90
20700;DHT22;10511;51.232;9.420;2023-04-09T00:06:11;6.80;99.90
20700;DHT22;10511;51.232;9.420;2023-04-09T00:08:39;6.80;99.90
20700;DHT22;10511;51.232;9.420;2023-04-09T00:11:06;6.80;99.90
20700;DHT22;10511;51.232;9.420;2023-04-09T00:13:33;6.80;99.90
20700;DHT22;10511;51.232;9.420;2023-04-09T00:16:00;6.80;99.90
20700;DHT22;10511;51.232;9.420;2023-04-09T00:18:26;6.80;99.90
20700;DHT22;10511;51.232;9.420;2023-04-09T00:20:53;6.70;99.90
20700;DHT22;10511;51.232;9.420;2023-04-09T00:23:20;6.70;99.90
20700;DHT22;10511;51.232;9.420;2023-04-09T00:25:48;6.70;99.90
20700;DHT22;10511;51.232;9.420;2023-04-09T00:28:15;6.70;99.90
20700;DHT22;10511;51.232;9.420;2023-04-09T00:30:42;6.70;99.90
20700;DHT22;10511;51.232;9.420;2023-04-09T00:33:09;6.70;99.90
20700;DHT22;10511;51.232;9.420;2023-04-09T00:35:36;6.70;99.90
20700;DHT22;10511;51.232;9.420;2023-04-09T00:38:02;6.60;99.90
20700;DHT22;10511;51.232;9.420;2023-04-09T00:40:29;6.60;99.90
20700;DHT22;10511;51.232;9.420;2023-04-09T00:42:58;6.70;99.90
20700;DHT22;10511;51.232;9.420;2023-04-09T00:45:25;6.60;99.90
20700;DHT22;10511;51.232;9.420;2023-04-09T00:47:52;6.60;99.90
20700;DHT22;10511;51.232;9.420;2023-04-09T00:50:20;6.60;99.90
20700;DHT22;10511;51.232;9.420;2023-04-09T00:52:47;6.60;99.90
20700;DHT22;10511;51.232;9.420;2023-04-09T00:55:14;6.50;99.90
20700;DHT22;10511;51.232;9.420;2023-04-09T00:57:41;6.50;99.90
20700;DHT22;10511;51.232;9.420;2023-04-09T01:00:11;6.50;99.90
20700;DHT22;10511;51.232;9.420;2023-04-09T01:02:38;6.50;99.90
20700;DHT22;10511;51.232;9.420;2023-04-09T01:05:06;6.50;99.90
20700;DHT22;10511;51.232;9.420;2023-04-09T01:07:41;6.40;99.90
20700;DHT22;10511;51.232;9.420;2023-04-09T01:10:16;6.40;99.90
20700;DHT22;10511;51.232;9.420;2023-04-09T01:12:53;6.40;99.90
20700;DHT22;10511;51.232;9.420;2023-04-09T01:15:27;6.40;99.90
20700;DHT22;10511;51.232;9.420;2023-04-09T01:18:00;6.40;99.90
20700;DHT22;10511;51.232;9.420;2023-04-09T01:20:34;6.30;99.90
20700;DHT22;10511;51.232;9.420;2023-04-09T01:23:13;6.40;99.90
20700;DHT22;10511;51.232;9.420;2023-04-09T01:26:01;6.30;99.90
20700;DHT22;10511;51.232;9.420;2023-04-09T01:28:32;6.30;99.90
20700;DHT22;10511;51.232;9.420;2023-04-09T01:31:05;6.30;99.90
20700;DHT22;10511;51.232;9.420;2023-04-09T01:33:33;6.30;99.90
20700;DHT22;10511;51.232;9.420;2023-04-09T01:36:01;6.20;99.90
20700;DHT22;10511;51.232;9.420;2023-04-09T01:38:30;6.20;99.90
20700;DHT22;10511;51.232;9.420;2023-04-09T01:40:59;6.20;99.90
20700;DHT22;10511;51.232;9.420;2023-04-09T01:43:26;6.20;99.90
20700;DHT22;10511;51.232;9.420;2023-04-09T01:45:55;6.20;99.90
20700;DHT22;10511;51.232;9.420;2023-04-09T01:48:23;6.10;99.90
20700;DHT22;10511;51.232;9.420;2023-04-09T01:50:50;6.10;99.90
20700;DHT22;10511;51.232;9.420;2023-04-09T01:53:17;6.10;99.90
20700;DHT22;10511;51.232;9.420;2023-04-09T01:55:44;6.00;99.90
20700;DHT22;10511;51.232;9.420;2023-04-09T01:58:11;6.00;99.90
20700;DHT22;10511;51.232;9.420;2023-04-09T02:00:39;6.00;99.90
20700;DHT22;10511;51.232;9.420;2023-04-09T02:03:17;6.00;99.90
20700;DHT22;10511;51.232;9.420;2023-04-09T02:05:48;6.00;99.90
20700;DHT22;10511;51.232;9.420;2023-04-09T02:08:19;6.00;99.90
20700;DHT22;10511;51.232;9.420;2023-04-09T02:10:49;6.00;99.90
20700;DHT22;10511;51.232;9.420;2023-04-09T02:13:20;6.00;99.90
20700;DHT22;10511;51.232;9.420;2023-04-09T02:15:47;6.00;99.90
20700;DHT22;10511;51.232;9.420;2023-04-09T02:18:23;6.00;99.90
20700;DHT22;10511;51.232;9.420;2023-04-09T02:20:52;6.00;99.90
20700;DHT22;10511;51.232;9.420;2023-04-09T02:23:19;6.00;99.90
20700;DHT22;10511;51.232;9.420;2023-04-09T02:25:46;6.00;99.90
20700;DHT22;10511;51.232;9.420;2023-04-09T02:28:13;6.00;99.90
20700;DHT22;10511;51.232;9.420;2023-04-09T02:30:40;6.00;99.90
20700;DHT22;10511;51.232;9.420;2023-04-09T02:33:06;6.00;99.90
20700;DHT22;10511;51.232;9.420;2023-04-09T02:35:35;6.00;99.90
20700;DHT22;10511;51.232;9.420;2023-04-09T02:38:02;5.90;99.90
20700;DHT22;10511;51.232;9.420;2023-04-09T02:40:29;5.90;99.90
20700;DHT22;10511;51.232;9.420;2023-04-09T02:42:56;5.90;99.90
20700;DHT22;10511;51.232;9.420;2023-04-09T02:45:23;5.90;99.90
20700;DHT22;10511;51.232;9.420;2023-04-09T02:47:50;5.80;99.90
20700;DHT22;10511;51.232;9.420;2023-04-09T02:50:17;5.80;99.90
20700;DHT22;10511;51.232;9.420;2023-04-09T02:52:46;5.80;99.90
20700;DHT22;10511;51.232;9.420;2023-04-09T02:55:13;5.80;99.90
20700;DHT22;10511;51.232;9.420;2023-04-09T02:57:40;5.80;99.90
20700;DHT22;10511;51.232;9.420;2023-04-09T03:00:08;5.70;99.90
20700;DHT22;10511;51.232;9.420;2023-04-09T03:02:35;5.80;99.90
20700;DHT22;10511;51.232;9.420;2023-04-09T03:05:01;5.70;99.90
20700;DHT22;10511;51.232;9.420;2023-04-09T03:07:28;5.70;99.90
20700;DHT22;10511;51.232;9.420;2023-04-09T03:09:57;5.70;99.90
20700;DHT22;10511;51.232;9.420;2023-04-09T03:12:24;5.70;99.90
20700;DHT22;10511;51.232;9.420;2023-04-09T03:14:50;5.70;99.90
20700;DHT22;10511;51.232;9.420;2023-04-09T03:17:17;5.60;99.90
20700;DHT22;10511;51.232;9.420;2023-04-09T03:19:44;5.60;99.90
20700;DHT22;10511;51.232;9.420;2023-04-09T03:22:11;5.70;99.90
20700;DHT22;10511;51.232;9.420;2023-04-09T03:24:38;5.70;99.90
20700;DHT22;10511;51.232;9.420;2023-04-09T03:27:06;5.70;99.90
20700;DHT22;10511;51.232;9.420;2023-04-09T03:29:33;5.70;99.90
20700;DHT22;10511;51.232;9.420;2023-04-09T03:32:00;5.70;99.90
20700;DHT22;10511;51.232;9.420;2023-04-09T03:34:27;5.70;99.90
20700;DHT22;10511;51.232;9.420;2023-04-09T03:36:53;5.80;99.90
20700;DHT22;10511;51.232;9.420;2023-04-09T03:39:20;5.70;99.90
20700;DHT22;10511;51.232;9.420;2023-04-09T03:41:47;5.80;99.90
20700;DHT22;10511;51.232;9.420;2023-04-09T03:44:15;5.80;99.90
20700;DHT22;10511;51.232;9.420;2023-04-09T03:46:42;5.80;99.90
20700;DHT22;10511;51.232;9.420;2023-04-09T03:49:09;5.70;99.90
20700;DHT22;10511;51.232;9.420;2023-04-09T03:51:36;5.70;99.90
20700;DHT22;10511;51.232;9.420;2023-04-09T03:54:03;5.70;99.90
20700;DHT22;10511;51.232;9.420;2023-04-09T03:56:30;5.70;99.90
20700;DHT22;10511;51.232;9.420;2023-04-09T03:58:56;5.70;99.90
20700;DHT22;10511;51.232;9.420;2023-04-09T04:01:25;5.70;99.90
20700;DHT22;10511;51.232;9.420;2023-04-09T04:03:51;5.70;99.90
20700;DHT22;10511;51.232;9.420;2023-04-09T04:06:18;5.70;99.90
20700;DHT22;10511;51.232;9.420;2023-04-09T04:08:45;5.70;99.90
20700;DHT22;10511;51.232;9.420;2023-04-09T04:11:12;5.70;99.90
20700;DHT22;10511;51.232;9.420;2023-04-09T04:13:39;5.70;99.90
20700;DHT22;10511;51.232;9.420;2023-04-09T04:16:06;5.60;99.90
20700;DHT22;10511;51.232;9.420;2023-04-09T04:18:35;5.60;99.90
20700;DHT22;10511;51.232;9.420;2023-04-09T04:21:02;5.60;99.90
20700;DHT22;10511;51.232;9.420;2023-04-09T04:23:29;5.60;99.90
20700;DHT22;10511;51.232;9.420;2023-04-09T04:25:56;5.60;99.90
20700;DHT22;10511;51.232;9.420;2023-04-09T04:28:23;5.60;99.90
20700;DHT22;10511;51.232;9.420;2023-04-09T04:30:50;5.50;99.90
20700;DHT22;10511;51.232;9.420;2023-04-09T04:33:17;5.60;99.90
20700;DHT22;10511;51.232;9.420;2023-04-09T04:35:45;5.60;99.90
20700;DHT22;10511;51.232;9.420;2023-04-09T04:38:12;5.60;99.90
20700;DHT22;10511;51.232;9.420;2023-04-09T04:40:39;5.60;99.90
20700;DHT22;10511;51.232;9.420;2023-04-09T04:43:05;5.60;99.90
20700;DHT22;10511;51.232;9.420;2023-04-09T04:45:32;5.60;99.90
20700;DHT22;10511;51.232;9.420;2023-04-09T04:47:59;5.60;99.90
20700;DHT22;10511;51.232;9.420;2023-04-09T04:50:26;5.60;99.90
20700;DHT22;10511;51.232;9.420;2023-04-09T04:52:54;5.60;99.90
20700;DHT22;10511;51.232;9.420;2023-04-09T04:55:21;5.60;99.90
20700;DHT22;10511;51.232;9.420;2023-04-09T04:57:49;5.50;99.90
20700;DHT22;10511;51.232;9.420;2023-04-09T05:00:16;5.50;99.90
20700;DHT22;10511;51.232;9.420;2023-04-09T05:02:44;5.50;99.90
20700;DHT22;10511;51.232;9.420;2023-04-09T05:05:11;5.50;99.90
20700;DHT22;10511;51.232;9.420;2023-04-09T05:07:38;5.40;99.90
20700;DHT22;10511;51.232;9.420;2023-04-09T05:10:07;5.50;99.90
20700;DHT22;10511;51.232;9.420;2023-04-09T05:12:34;5.50;99.90
20700;DHT22;10511;51.232;9.420;2023-04-09T05:15:01;5.50;99.90
20700;DHT22;10511;51.232;9.420;2023-04-09T05:17:28;5.50;99.90
20700;DHT22;10511;51.232;9.420;2023-04-09T05:19:55;5.50;99.90
20700;DHT22;10511;51.232;9.420;2023-04-09T05:22:23;5.50;99.90
20700;DHT22;10511;51.232;9.420;2023-04-09T05:24:50;5.50;99.90
20700;DHT22;10511;51.232;9.420;2023-04-09T05:27:18;5.50;99.90
20700;DHT22;10511;51.232;9.420;2023-04-09T05:29:46;5.50;99.90
20700;DHT22;10511;51.232;9.420;2023-04-09T05:32:13;5.50;99.90
20700;DHT22;10511;51.232;9.420;2023-04-09T05:34:40;5.50;99.90
20700;DHT22;10511;51.232;9.420;2023-04-09T05:37:07;5.50;99.90
20700;DHT22;10511;51.232;9.420;2023-04-09T05:39:34;5.50;99.90
20700;DHT22;10511;51.232;9.420;2023-04-09T05:42:01;5.60;99.90
20700;DHT22;10511;51.232;9.420;2023-04-09T05:44:29;5.60;99.90
20700;DHT22;10511;51.232;9.420;2023-04-09T05:46:56;5.60;99.90
20700;DHT22;10511;51.232;9.420;2023-04-09T05:49:23;5.60;99.90
20700;DHT22;10511;51.232;9.420;2023-04-09T05:51:49;5.70;99.90
20700;DHT22;10511;51.232;9.420;2023-04-09T05:54:16;5.70;99.90
20700;DHT22;10511;51.232;9.420;2023-04-09T05:56:43;5.70;99.90
20700;DHT22;10511;51.232;9.420;2023-04-09T05:59:10;5.70;99.90
20700;DHT22;10511;51.232;9.420;2023-04-09T06:01:39;5.80;99.90
20700;DHT22;10511;51.232;9.420;2023-04-09T06:04:05;5.80;99.90
20700;DHT22;10511;51.232;9.420;2023-04-09T06:06:32;5.90;99.90
20700;DHT22;10511;51.232;9.420;2023-04-09T06:08:59;5.90;99.90
20700;DHT22;10511;51.232;9.420;2023-04-09T06:11:26;6.00;99.90
20700;DHT22;10511;51.232;9.420;2023-04-09T06:13:53;6.00;99.90
20700;DHT22;10511;51.232;9.420;2023-04-09T06:16:20;6.10;99.90
20700;DHT22;10511;51.232;9.420;2023-04-09T06:18:48;6.10;99.90
20700;DHT22;10511;51.232;9.420;2023-04-09T06:21:19;6.10;99.90
20700;DHT22;10511;51.232;9.420;2023-04-09T06:23:46;6.20;99.90
20700;DHT22;10511;51.232;9.420;2023-04-09T06:26:13;6.20;99.90
20700;DHT22;10511;51.232;9.420;2023-04-09T06:28:40;6.30;99.90
20700;DHT22;10511;51.232;9.420;2023-04-09T06:31:08;6.30;99.90
20700;DHT22;10511;51.232;9.420;2023-04-09T06:33:35;6.40;99.90
20700;DHT22;10511;51.232;9.420;2023-04-09T06:36:03;6.50;99.90
20700;DHT22;10511;51.232;9.420;2023-04-09T06:38:30;6.50;99.90
20700;DHT22;10511;51.232;9.420;2023-04-09T06:40:57;6.60;99.90
20700;DHT22;10511;51.232;9.420;2023-04-09T06:43:25;6.60;99.90
20700;DHT22;10511;51.232;9.420;2023-04-09T06:45:52;6.70;99.90
20700;DHT22;10511;51.232;9.420;2023-04-09T06:48:19;6.80;99.90
20700;DHT22;10511;51.232;9.420;2023-04-09T06:50:46;6.80;99.90
20700;DHT22;10511;51.232;9.420;2023-04-09T06:53:15;6.80;99.90
20700;DHT22;10511;51.232;9.420;2023-04-09T06:55:42;6.90;99.90
20700;DHT22;10511;51.232;9.420;2023-04-09T06:58:09;6.90;99.90
20700;DHT22;10511;51.232;9.420;2023-04-09T07:00:36;7.00;99.90
20700;DHT22;10511;51.232;9.420;2023-04-09T07:03:03;7.20;99.90
20700;DHT22;10511;51.232;9.420;2023-04-09T07:05:33;7.20;99.90
20700;DHT22;10511;51.232;9.420;2023-04-09T07:08:01;7.30;99.90
20700;DHT22;10511;51.232;9.420;2023-04-09T07:10:30;7.40;99.90
20700;DHT22;10511;51.232;9.420;2023-04-09T07:12:57;7.50;99.90
20700;DHT22;10511;51.232;9.420;2023-04-09T07:15:24;7.60;99.90
20700;DHT22;10511;51.232;9.420;2023-04-09T07:17:51;7.80;99.90
20700;DHT22;10511;51.232;9.420;2023-04-09T07:20:18;7.90;99.90
20700;DHT22;10511;51.232;9.420;2023-04-09T07:22:45;8.10;99.90
20700;DHT22;10511;51.232;9.420;2023-04-09T07:25:12;8.10;99.90
20700;DHT22;10511;51.232;9.420;2023-04-09T07:27:40;8.20;99.90
20700;DHT22;10511;51.232;9.420;2023-04-09T07:30:08;8.30;99.90
20700;DHT22;10511;51.232;9.420;2023-04-09T07:32:36;8.30;99.90
20700;DHT22;10511;51.232;9.420;2023-04-09T07:35:05;8.30;99.90
20700;DHT22;10511;51.232;9.420;2023-04-09T07:37:32;8.40;99.90
20700;DHT22;10511;51.232;9.420;2023-04-09T07:40:00;8.30;99.90
20700;DHT22;10511;51.232;9.420;2023-04-09T07:42:28;8.20;99.90
20700;DHT22;10511;51.232;9.420;2023-04-09T07:44:56;8.10;99.90
20700;DHT22;10511;51.232;9.420;2023-04-09T07:47:23;8.10;99.90
20700;DHT22;10511;51.232;9.420;2023-04-09T07:49:50;8.20;99.90
20700;DHT22;10511;51.232;9.420;2023-04-09T07:52:18;8.30;99.90
20700;DHT22;10511;51.232;9.420;2023-04-09T07:54:45;8.50;99.90
20700;DHT22;10511;51.232;9.420;2023-04-09T07:57:12;8.80;99.90
20700;DHT22;10511;51.232;9.420;2023-04-09T07:59:39;8.90;99.90
20700;DHT22;10511;51.232;9.420;2023-04-09T08:02:07;9.10;99.90
20700;DHT22;10511;51.232;9.420;2023-04-09T08:04:34;9.20;99.90
20700;DHT22;10511;51.232;9.420;2023-04-09T08:07:01;9.30;99.90
20700;DHT22;10511;51.232;9.420;2023-04-09T08:09:28;9.30;99.90
20700;DHT22;10511;51.232;9.420;2023-04-09T08:11:55;9.40;99.90
20700;DHT22;10511;51.232;9.420;2023-04-09T08:14:22;9.40;99.90
20700;DHT22;10511;51.232;9.420;2023-04-09T08:16:50;9.50;99.90
20700;DHT22;10511;51.232;9.420;2023-04-09T08:19:18;9.40;99.90
20700;DHT22;10511;51.232;9.420;2023-04-09T08:21:45;9.60;99.90
20700;DHT22;10511;51.232;9.420;2023-04-09T08:24:14;9.80;99.90
20700;DHT22;10511;51.232;9.420;2023-04-09T08:26:41;9.70;99.90
20700;DHT22;10511;51.232;9.420;2023-04-09T08:29:10;9.60;99.90
20700;DHT22;10511;51.232;9.420;2023-04-09T08:31:38;9.80;99.90
20700;DHT22;10511;51.232;9.420;2023-04-09T08:34:05;9.80;99.90
20700;DHT22;10511;51.232;9.420;2023-04-09T08:36:33;9.70;99.90
20700;DHT22;10511;51.232;9.420;2023-04-09T08:39:00;9.80;99.90
20700;DHT22;10511;51.232;9.420;2023-04-09T08:41:28;9.90;99.90
20700;DHT22;10511;51.232;9.420;2023-04-09T08:43:55;10.00;99.90
20700;DHT22;10511;51.232;9.420;2023-04-09T08:46:23;10.00;99.90
20700;DHT22;10511;51.232;9.420;2023-04-09T08:48:52;10.10;99.90
20700;DHT22;10511;51.232;9.420;2023-04-09T08:51:21;10.20;99.90
20700;DHT22;10511;51.232;9.420;2023-04-09T08:53:54;10.40;99.90
20700;DHT22;10511;51.232;9.420;2023-04-09T08:56:22;10.40;99.90
20700;DHT22;10511;51.232;9.420;2023-04-09T08:58:49;10.30;99.90
20700;DHT22;10511;51.232;9.420;2023-04-09T09:01:20;10.40;99.90
20700;DHT22;10511;51.232;9.420;2023-04-09T09:03:56;10.50;99.90
20700;DHT22;10511;51.232;9.420;2023-04-09T09:06:24;10.70;99.90
20700;DHT22;10511;51.232;9.420;2023-04-09T09:09:06;10.70;99.90
20700;DHT22;10511;51.232;9.420;2023-04-09T09:11:34;10.60;99.90
20700;DHT22;10511;51.232;9.420;2023-04-09T09:14:03;10.50;99.90
20700;DHT22;10511;51.232;9.420;2023-04-09T09:16:30;10.30;99.90
20700;DHT22;10511;51.232;9.420;2023-04-09T09:18:59;10.10;99.90
20700;DHT22;10511;51.232;9.420;2023-04-09T09:21:27;10.00;99.90
20700;DHT22;10511;51.232;9.420;2023-04-09T09:23:55;10.00;99.90
20700;DHT22;10511;51.232;9.420;2023-04-09T09:26:24;9.90;99.90
20700;DHT22;10511;51.232;9.420;2023-04-09T09:28:52;9.90;99.90
20700;DHT22;10511;51.232;9.420;2023-04-09T09:31:20;10.10;99.90
20700;DHT22;10511;51.232;9.420;2023-04-09T09:33:48;10.30;99.90
20700;DHT22;10511;51.232;9.420;2023-04-09T09:36:29;10.50;99.90
20700;DHT22;10511;51.232;9.420;2023-04-09T09:38:58;10.80;99.90
20700;DHT22;10511;51.232;9.420;2023-04-09T09:41:29;11.10;99.90
20700;DHT22;10511;51.232;9.420;2023-04-09T09:43:56;10.90;99.90
20700;DHT22;10511;51.232;9.420;2023-04-09T09:46:24;10.80;99.90
20700;DHT22;10511;51.232;9.420;2023-04-09T09:48:51;10.90;99.90
20700;DHT22;10511;51.232;9.420;2023-04-09T09:51:19;10.90;99.90
20700;DHT22;10511;51.232;9.420;2023-04-09T09:53:50;10.90;99.90
20700;DHT22;10511;51.232;9.420;2023-04-09T09:56:22;10.80;99.90
20700;DHT22;10511;51.232;9.420;2023-04-09T09:58:58;10.70;99.90
20700;DHT22;10511;51.232;9.420;2023-04-09T10:01:28;10.70;99.90
20700;DHT22;10511;51.232;9.420;2023-04-09T10:03:56;10.70;99.90
20700;DHT22;10511;51.232;9.420;2023-04-09T10:06:26;10.70;99.90
20700;DHT22;10511;51.232;9.420;2023-04-09T10:08:55;10.70;99.90
20700;DHT22;10511;51.232;9.420;2023-04-09T10:11:23;10.70;99.90
20700;DHT22;10511;51.232;9.420;2023-04-09T10:13:54;10.80;99.90
20700;DHT22;10511;51.232;9.420;2023-04-09T10:16:22;10.80;99.90
20700;DHT22;10511;51.232;9.420;2023-04-09T10:18:49;10.70;99.90
20700;DHT22;10511;51.232;9.420;2023-04-09T10:21:23;10.70;99.90
20700;DHT22;10511;51.232;9.420;2023-04-09T10:23:51;10.60;99.90
20700;DHT22;10511;51.232;9.420;2023-04-09T10:26:18;10.50;99.90
20700;DHT22;10511;51.232;9.420;2023-04-09T10:28:47;10.40;99.90
20700;DHT22;10511;51.232;9.420;2023-04-09T10:31:44;10.40;99.90
20700;DHT22;10511;51.232;9.420;2023-04-09T10:34:14;10.40;99.90
20700;DHT22;10511;51.232;9.420;2023-04-09T10:36:42;10.30;99.90
20700;DHT22;10511;51.232;9.420;2023-04-09T10:39:11;10.10;99.90
20700;DHT22;10511;51.232;9.420;2023-04-09T10:41:39;10.20;99.90
20700;DHT22;10511;51.232;9.420;2023-04-09T10:44:19;10.20;99.90
20700;DHT22;10511;51.232;9.420;2023-04-09T10:46:47;10.30;99.90
20700;DHT22;10511;51.232;9.420;2023-04-09T10:49:18;10.30;99.90
20700;DHT22;10511;51.232;9.420;2023-04-09T10:51:50;10.30;99.90
20700;DHT22;10511;51.232;9.420;2023-04-09T10:54:43;10.30;99.90
20700;DHT22;10511;51.232;9.420;2023-04-09T10:57:13;10.30;99.90
20700;DHT22;10511;51.232;9.420;2023-04-09T10:59:41;10.40;99.90
20700;DHT22;10511;51.232;9.420;2023-04-09T11:05:20;10.50;99.90
20700;DHT22;10511;51.232;9.420;2023-04-09T11:07:52;10.70;99.90
20700;DHT22;10511;51.232;9.420;2023-04-09T11:10:19;10.70;99.90
20700;DHT22;10511;51.232;9.420;2023-04-09T11:12:46;10.60;99.90
20700;DHT22;10511;51.232;9.420;2023-04-09T11:15:17;10.70;99.90
20700;DHT22;10511;51.232;9.420;2023-04-09T11:17:45;10.90;99.90
20700;DHT22;10511;51.232;9.420;2023-04-09T11:20:13;10.80;99.90
20700;DHT22;10511;51.232;9.420;2023-04-09T11:22:40;10.60;99.90
20700;DHT22;10511;51.232;9.420;2023-04-09T11:25:07;10.60;99.90
20700;DHT22;10511;51.232;9.420;2023-04-09T11:27:36;10.60;99.90
20700;DHT22;10511;51.232;9.420;2023-04-09T11:30:04;10.50;99.90
20700;DHT22;10511;51.232;9.420;2023-04-09T11:32:32;10.50;99.90
20700;DHT22;10511;51.232;9.420;2023-04-09T11:35:00;10.60;99.90
20700;DHT22;10511;51.232;9.420;2023-04-09T11:37:28;10.60;99.90
20700;DHT22;10511;51.232;9.420;2023-04-09T11:39:55;10.60;99.90
20700;DHT22;10511;51.232;9.420;2023-04-09T11:42:23;10.70;99.90
20700;DHT22;10511;51.232;9.420;2023-04-09T11:44:52;10.70;99.90
20700;DHT22;10511;51.232;9.420;2023-04-09T11:47:20;10.80;99.90
20700;DHT22;10511;51.232;9.420;2023-04-09T11:49:47;10.80;99.90
20700;DHT22;10511;51.232;9.420;2023-04-09T11:52:15;11.00;99.90
20700;DHT22;10511;51.232;9.420;2023-04-09T11:54:44;11.10;99.90
20700;DHT22;10511;51.232;9.420;2023-04-09T11:57:13;11.20;99.90
20700;DHT22;10511;51.232;9.420;2023-04-09T11:59:40;11.20;99.90
20700;DHT22;10511;51.232;9.420;2023-04-09T12:02:08;11.30;99.90
20700;DHT22;10511;51.232;9.420;2023-04-09T12:04:35;11.30;99.90
20700;DHT22;10511;51.232;9.420;2023-04-09T12:07:07;11.30;99.90
20700;DHT22;10511;51.232;9.420;2023-04-09T12:09:46;11.30;99.90
20700;DHT22;10511;51.232;9.420;2023-04-09T12:12:17;11.30;99.90
20700;DHT22;10511;51.232;9.420;2023-04-09T12:14:45;11.20;99.90
20700;DHT22;10511;51.232;9.420;2023-04-09T12:17:12;11.40;99.90
20700;DHT22;10511;51.232;9.420;2023-04-09T12:19:39;11.60;99.90
20700;DHT22;10511;51.232;9.420;2023-04-09T12:22:08;11.80;99.90
20700;DHT22;10511;51.232;9.420;2023-04-09T12:24:37;11.90;99.90
20700;DHT22;10511;51.232;9.420;2023-04-09T12:27:04;12.10;99.90
20700;DHT22;10511;51.232;9.420;2023-04-09T12:29:31;12.40;99.90
20700;DHT22;10511;51.232;9.420;2023-04-09T12:31:58;12.60;99.90
20700;DHT22;10511;51.232;9.420;2023-04-09T12:34:25;12.80;99.90
20700;DHT22;10511;51.232;9.420;2023-04-09T12:36:52;12.80;99.90
20700;DHT22;10511;51.232;9.420;2023-04-09T12:39:19;12.70;99.90
20700;DHT22;10511;51.232;9.420;2023-04-09T12:41:47;12.70;99.90
20700;DHT22;10511;51.232;9.420;2023-04-09T12:44:14;12.60;99.90
20700;DHT22;10511;51.232;9.420;2023-04-09T12:46:41;12.80;99.90
20700;DHT22;10511;51.232;9.420;2023-04-09T12:49:09;12.70;99.90
20700;DHT22;10511;51.232;9.420;2023-04-09T12:51:36;12.40;99.90
20700;DHT22;10511;51.232;9.420;2023-04-09T12:54:03;12.50;99.90
20700;DHT22;10511;51.232;9.420;2023-04-09T12:56:30;12.50;99.90
20700;DHT22;10511;51.232;9.420;2023-04-09T12:58:58;12.50;99.90
20700;DHT22;10511;51.232;9.420;2023-04-09T13:01:25;12.70;99.90
20700;DHT22;10511;51.232;9.420;2023-04-09T13:03:52;13.00;99.90
20700;DHT22;10511;51.232;9.420;2023-04-09T13:06:19;12.80;99.90
20700;DHT22;10511;51.232;9.420;2023-04-09T13:08:46;13.00;99.90
20700;DHT22;10511;51.232;9.420;2023-04-09T13:11:13;12.90;99.90
20700;DHT22;10511;51.232;9.420;2023-04-09T13:13:40;13.10;99.90
20700;DHT22;10511;51.232;9.420;2023-04-09T13:16:09;13.00;99.90
20700;DHT22;10511;51.232;9.420;2023-04-09T13:18:35;13.00;99.90
20700;DHT22;10511;51.232;9.420;2023-04-09T13:21:03;13.30;99.90
20700;DHT22;10511;51.232;9.420;2023-04-09T13:23:30;13.70;99.90
20700;DHT22;10511;51.232;9.420;2023-04-09T13:25:56;14.00;99.90
20700;DHT22;10511;51.232;9.420;2023-04-09T13:28:24;14.20;99.90
20700;DHT22;10511;51.232;9.420;2023-04-09T13:30:51;14.40;99.90
20700;DHT22;10511;51.232;9.420;2023-04-09T13:33:19;14.40;99.90
20700;DHT22;10511;51.232;9.420;2023-04-09T13:35:46;14.40;99.90
20700;DHT22;10511;51.232;9.420;2023-04-09T13:38:13;14.10;99.90
20700;DHT22;10511;51.232;9.420;2023-04-09T13:40:40;13.80;99.90
20700;DHT22;10511;51.232;9.420;2023-04-09T13:43:07;13.60;99.90
20700;DHT22;10511;51.232;9.420;2023-04-09T13:45:34;13.40;99.90
20700;DHT22;10511;51.232;9.420;2023-04-09T13:48:01;13.30;99.90
20700;DHT22;10511;51.232;9.420;2023-04-09T13:50:29;13.30;99.90
20700;DHT22;10511;51.232;9.420;2023-04-09T13:52:56;13.20;99.90
20700;DHT22;10511;51.232;9.420;2023-04-09T13:55:23;13.30;99.90
20700;DHT22;10511;51.232;9.420;2023-04-09T13:57:50;13.30;99.90
20700;DHT22;10511;51.232;9.420;2023-04-09T14:00:17;13.00;99.90
20700;DHT22;10511;51.232;9.420;2023-04-09T14:02:44;13.00;99.90
20700;DHT22;10511;51.232;9.420;2023-04-09T14:05:11;13.20;99.90
20700;DHT22;10511;51.232;9.420;2023-04-09T14:07:39;13.50;99.90
20700;DHT22;10511;51.232;9.420;2023-04-09T14:10:07;13.50;99.90
20700;DHT22;10511;51.232;9.420;2023-04-09T14:12:34;13.70;99.90
20700;DHT22;10511;51.232;9.420;2023-04-09T14:15:01;13.80;99.90
20700;DHT22;10511;51.232;9.420;2023-04-09T14:17:55;13.90;99.90
20700;DHT22;10511;51.232;9.420;2023-04-09T14:20:22;13.80;99.90
20700;DHT22;10511;51.232;9.420;2023-04-09T14:22:50;13.90;99.90
20700;DHT22;10511;51.232;9.420;2023-04-09T14:25:17;13.80;99.90
20700;DHT22;10511;51.232;9.420;2023-04-09T14:27:44;13.60;99.90
20700;DHT22;10511;51.232;9.420;2023-04-09T14:30:11;13.40;99.90
20700;DHT22;10511;51.232;9.420;2023-04-09T14:32:38;13.40;99.90
20700;DHT22;10511;51.232;9.420;2023-04-09T14:35:05;13.40;99.90
20700;DHT22;10511;51.232;9.420;2023-04-09T14:37:32;13.50;99.90
20700;DHT22;10511;51.232;9.420;2023-04-09T14:40:00;13.60;99.90
20700;DHT22;10511;51.232;9.420;2023-04-09T14:42:27;13.50;99.90
20700;DHT22;10511;51.232;9.420;2023-04-09T14:44:54;13.60;99.90
20700;DHT22;10511;51.232;9.420;2023-04-09T14:47:21;13.70;99.90
20700;DHT22;10511;51.232;9.420;2023-04-09T14:49:48;13.80;99.90
20700;DHT22;10511;51.232;9.420;2023-04-09T14:52:15;13.90;99.90
20700;DHT22;10511;51.232;9.420;2023-04-09T14:54:42;13.90;99.90
20700;DHT22;10511;51.232;9.420;2023-04-09T14:57:10;13.90;99.90
20700;DHT22;10511;51.232;9.420;2023-04-09T14:59:37;14.00;99.90
20700;DHT22;10511;51.232;9.420;2023-04-09T15:02:03;13.90;99.90
20700;DHT22;10511;51.232;9.420;2023-04-09T15:04:31;13.80;99.90
20700;DHT22;10511;51.232;9.420;2023-04-09T15:06:57;13.60;99.90
20700;DHT22;10511;51.232;9.420;2023-04-09T15:09:24;13.50;99.90
20700;DHT22;10511;51.232;9.420;2023-04-09T15:11:52;13.10;99.90
20700;DHT22;10511;51.232;9.420;2023-04-09T15:14:21;13.00;99.90
20700;DHT22;10511;51.232;9.420;2023-04-09T15:16:48;13.00;99.90
20700;DHT22;10511;51.232;9.420;2023-04-09T15:19:16;13.10;99.90
20700;DHT22;10511;51.232;9.420;2023-04-09T15:21:43;13.30;99.90
20700;DHT22;10511;51.232;9.420;2023-04-09T15:24:09;13.70;99.90
20700;DHT22;10511;51.232;9.420;2023-04-09T15:26:36;13.80;99.90
20700;DHT22;10511;51.232;9.420;2023-04-09T15:29:06;13.90;99.90
20700;DHT22;10511;51.232;9.420;2023-04-09T15:31:34;14.10;99.90
20700;DHT22;10511;51.232;9.420;2023-04-09T15:34:01;14.20;99.90
20700;DHT22;10511;51.232;9.420;2023-04-09T15:36:28;14.10;99.90
20700;DHT22;10511;51.232;9.420;2023-04-09T15:38:56;14.00;99.90
20700;DHT22;10511;51.232;9.420;2023-04-09T15:41:22;14.10;99.90
20700;DHT22;10511;51.232;9.420;2023-04-09T15:43:51;14.10;99.90
20700;DHT22;10511;51.232;9.420;2023-04-09T15:46:18;14.20;99.90
20700;DHT22;10511;51.232;9.420;2023-04-09T15:48:47;14.10;99.90